sensor_id;sensor_type;location;lat;lon;timestamp;temperature;humidity
21267;DHT22;10791;53.108;18.326;2023-05-06T00:03:38;5.30;99.90
21267;DHT22;10791;53.108;18.326;2023-05-06T00:08:43;5.40;99.90
21267;DHT22;10791;53.108;18.326;2023-05-06T00:13:47;5.40;99.90
21267;DHT22;10791;53.108;18.326;2023-05-06T00:18:51;5.40;99.90
21267;DHT22;10791;53.108;18.326;2023-05-06T00:23:54;5.30;99.90
21267;DHT22;10791;53.108;18.326;2023-05-06T00:28:58;5.30;99.90
21267;DHT22;10791;53.108;18.326;2023-05-06T00:34:01;5.30;99.90
21267;DHT22;10791;53.108;18.326;2023-05-06T00:39:04;5.40;99.90
21267;DHT22;10791;53.108;18.326;2023-05-06T00:44:08;5.50;99.90
21267;DHT22;10791;53.108;18.326;2023-05-06T00:49:11;5.70;99.90
21267;DHT22;10791;53.108;18.326;2023-05-06T00:54:15;5.90;99.40
21267;DHT22;10791;53.108;18.326;2023-05-06T00:59:19;6.10;98.60
21267;DHT22;10791;53.108;18.326;2023-05-06T01:04:22;6.30;97.30
21267;DHT22;10791;53.108;18.326;2023-05-06T01:09:33;6.40;96.60
21267;DHT22;10791;53.108;18.326;2023-05-06T01:20:09;6.60;95.40
21267;DHT22;10791;53.108;18.326;2023-05-06T01:25:21;6.60;94.70
21267;DHT22;10791;53.108;18.326;2023-05-06T01:30:30;6.70;94.50
21267;DHT22;10791;53.108;18.326;2023-05-06T01:40:41;6.80;93.60
21267;DHT22;10791;53.108;18.326;2023-05-06T01:45:48;6.80;93.50
21267;DHT22;10791;53.108;18.326;2023-05-06T01:50:55;6.80;93.10
21267;DHT22;10791;53.108;18.326;2023-05-06T01:55:58;6.80;92.80
21267;DHT22;10791;53.108;18.326;2023-05-06T02:01:02;6.90;92.10
21267;DHT22;10791;53.108;18.326;2023-05-06T02:06:06;6.90;91.80
21267;DHT22;10791;53.108;18.326;2023-05-06T02:11:09;6.90;91.50
21267;DHT22;10791;53.108;18.326;2023-05-06T02:16:12;6.90;91.50
21267;DHT22;10791;53.108;18.326;2023-05-06T02:21:16;7.00;90.80
21267;DHT22;10791;53.108;18.326;2023-05-06T02:26:19;6.90;90.60
21267;DHT22;10791;53.108;18.326;2023-05-06T02:31:22;7.00;90.00
21267;DHT22;10791;53.108;18.326;2023-05-06T02:36:26;7.00;89.10
21267;DHT22;10791;53.108;18.326;2023-05-06T02:41:29;7.00;88.60
21267;DHT22;10791;53.108;18.326;2023-05-06T02:46:33;7.00;88.50
21267;DHT22;10791;53.108;18.326;2023-05-06T02:51:37;7.00;88.40
21267;DHT22;10791;53.108;18.326;2023-05-06T02:56:41;7.00;87.60
21267;DHT22;10791;53.108;18.326;2023-05-06T03:01:45;7.00;86.90
21267;DHT22;10791;53.108;18.326;2023-05-06T03:06:48;6.90;86.60
21267;DHT22;10791;53.108;18.326;2023-05-06T03:11:51;7.00;85.80
21267;DHT22;10791;53.108;18.326;2023-05-06T03:16:54;7.00;86.00
21267;DHT22;10791;53.108;18.326;2023-05-06T03:21:58;7.00;85.80
21267;DHT22;10791;53.108;18.326;2023-05-06T03:27:01;7.00;85.20
21267;DHT22;10791;53.108;18.326;2023-05-06T03:32:05;7.00;84.90
21267;DHT22;10791;53.108;18.326;2023-05-06T03:37:09;7.00;85.00
21267;DHT22;10791;53.108;18.326;2023-05-06T03:42:12;7.00;84.30
21267;DHT22;10791;53.108;18.326;2023-05-06T03:47:15;7.00;83.90
21267;DHT22;10791;53.108;18.326;2023-05-06T03:52:19;7.00;84.30
21267;DHT22;10791;53.108;18.326;2023-05-06T03:57:23;6.90;86.40
21267;DHT22;10791;53.108;18.326;2023-05-06T04:02:26;6.90;86.10
21267;DHT22;10791;53.108;18.326;2023-05-06T04:07:31;6.90;85.50
21267;DHT22;10791;53.108;18.326;2023-05-06T04:12:34;6.90;86.70
21267;DHT22;10791;53.108;18.326;2023-05-06T04:17:38;6.90;86.70
21267;DHT22;10791;53.108;18.326;2023-05-06T04:22:41;6.90;87.20
21267;DHT22;10791;53.108;18.326;2023-05-06T04:27:45;6.80;86.60
21267;DHT22;10791;53.108;18.326;2023-05-06T04:32:48;6.80;86.20
21267;DHT22;10791;53.108;18.326;2023-05-06T04:37:52;6.90;86.90
21267;DHT22;10791;53.108;18.326;2023-05-06T04:42:55;6.80;87.10
21267;DHT22;10791;53.108;18.326;2023-05-06T04:47:59;6.90;88.20
21267;DHT22;10791;53.108;18.326;2023-05-06T04:53:02;6.90;88.10
21267;DHT22;10791;53.108;18.326;2023-05-06T04:58:05;6.90;88.40
21267;DHT22;10791;53.108;18.326;2023-05-06T05:03:09;6.90;88.60
21267;DHT22;10791;53.108;18.326;2023-05-06T05:08:12;6.90;87.70
21267;DHT22;10791;53.108;18.326;2023-05-06T05:13:16;7.00;87.20
21267;DHT22;10791;53.108;18.326;2023-05-06T05:18:19;6.90;88.30
21267;DHT22;10791;53.108;18.326;2023-05-06T05:23:23;7.00;87.60
21267;DHT22;10791;53.108;18.326;2023-05-06T05:28:26;7.00;87.60
21267;DHT22;10791;53.108;18.326;2023-05-06T05:33:30;7.10;86.40
21267;DHT22;10791;53.108;18.326;2023-05-06T05:38:33;7.20;86.80
21267;DHT22;10791;53.108;18.326;2023-05-06T05:43:36;7.20;86.00
21267;DHT22;10791;53.108;18.326;2023-05-06T05:48:39;7.20;85.80
21267;DHT22;10791;53.108;18.326;2023-05-06T05:53:43;7.10;86.40
21267;DHT22;10791;53.108;18.326;2023-05-06T05:58:46;7.20;86.70
21267;DHT22;10791;53.108;18.326;2023-05-06T06:03:49;7.20;87.40
21267;DHT22;10791;53.108;18.326;2023-05-06T06:08:53;7.30;87.70
21267;DHT22;10791;53.108;18.326;2023-05-06T06:13:57;7.20;88.40
21267;DHT22;10791;53.108;18.326;2023-05-06T06:19:00;7.20;88.90
21267;DHT22;10791;53.108;18.326;2023-05-06T06:24:04;7.30;89.40
21267;DHT22;10791;53.108;18.326;2023-05-06T06:29:07;7.40;89.00
21267;DHT22;10791;53.108;18.326;2023-05-06T06:34:10;7.50;89.20
21267;DHT22;10791;53.108;18.326;2023-05-06T06:39:14;7.40;90.60
21267;DHT22;10791;53.108;18.326;2023-05-06T06:44:18;7.40;90.70
21267;DHT22;10791;53.108;18.326;2023-05-06T06:52:11;7.50;90.70
21267;DHT22;10791;53.108;18.326;2023-05-06T06:57:14;7.50;91.60
21267;DHT22;10791;53.108;18.326;2023-05-06T07:02:19;7.60;92.10
21267;DHT22;10791;53.108;18.326;2023-05-06T07:07:27;7.60;92.60
21267;DHT22;10791;53.108;18.326;2023-05-06T07:12:30;7.70;92.70
21267;DHT22;10791;53.108;18.326;2023-05-06T07:17:34;7.70;92.70
21267;DHT22;10791;53.108;18.326;2023-05-06T07:22:37;7.60;93.60
21267;DHT22;10791;53.108;18.326;2023-05-06T07:27:41;7.70;93.80
21267;DHT22;10791;53.108;18.326;2023-05-06T07:32:44;7.80;93.90
21267;DHT22;10791;53.108;18.326;2023-05-06T07:37:48;7.70;94.90
21267;DHT22;10791;53.108;18.326;2023-05-06T07:42:51;7.80;96.00
21267;DHT22;10791;53.108;18.326;2023-05-06T07:47:55;7.70;96.90
21267;DHT22;10791;53.108;18.326;2023-05-06T07:52:59;7.70;98.00
21267;DHT22;10791;53.108;18.326;2023-05-06T07:58:02;7.70;98.70
21267;DHT22;10791;53.108;18.326;2023-05-06T08:03:05;7.60;99.70
21267;DHT22;10791;53.108;18.326;2023-05-06T08:08:09;7.50;99.90
21267;DHT22;10791;53.108;18.326;2023-05-06T08:13:12;7.40;99.90
21267;DHT22;10791;53.108;18.326;2023-05-06T08:18:16;7.20;99.90
21267;DHT22;10791;53.108;18.326;2023-05-06T08:23:24;7.20;99.90
21267;DHT22;10791;53.108;18.326;2023-05-06T08:28:28;7.10;99.90
21267;DHT22;10791;53.108;18.326;2023-05-06T08:33:31;7.00;99.90
21267;DHT22;10791;53.108;18.326;2023-05-06T08:38:35;7.10;99.90
21267;DHT22;10791;53.108;18.326;2023-05-06T08:43:42;7.00;99.90
21267;DHT22;10791;53.108;18.326;2023-05-06T08:48:48;7.10;99.90
21267;DHT22;10791;53.108;18.326;2023-05-06T08:53:53;7.10;99.90
21267;DHT22;10791;53.108;18.326;2023-05-06T08:58:58;7.20;99.90
21267;DHT22;10791;53.108;18.326;2023-05-06T09:04:02;7.20;99.90
21267;DHT22;10791;53.108;18.326;2023-05-06T09:09:06;7.20;99.90
21267;DHT22;10791;53.108;18.326;2023-05-06T09:14:14;7.20;99.90
21267;DHT22;10791;53.108;18.326;2023-05-06T09:19:20;7.20;99.90
21267;DHT22;10791;53.108;18.326;2023-05-06T09:24:24;7.20;99.90
21267;DHT22;10791;53.108;18.326;2023-05-06T09:29:27;7.30;99.90
21267;DHT22;10791;53.108;18.326;2023-05-06T09:34:30;7.30;99.90
21267;DHT22;10791;53.108;18.326;2023-05-06T09:39:34;7.30;99.90
21267;DHT22;10791;53.108;18.326;2023-05-06T09:44:37;7.30;99.90
21267;DHT22;10791;53.108;18.326;2023-05-06T09:49:41;7.40;99.90
21267;DHT22;10791;53.108;18.326;2023-05-06T09:54:46;7.50;99.90
21267;DHT22;10791;53.108;18.326;2023-05-06T09:59:50;7.60;99.90
21267;DHT22;10791;53.108;18.326;2023-05-06T10:04:57;7.60;99.90
21267;DHT22;10791;53.108;18.326;2023-05-06T10:10:07;7.60;99.90
21267;DHT22;10791;53.108;18.326;2023-05-06T10:15:11;7.70;99.90
21267;DHT22;10791;53.108;18.326;2023-05-06T10:20:16;7.70;99.90
21267;DHT22;10791;53.108;18.326;2023-05-06T10:25:38;7.80;99.90
21267;DHT22;10791;53.108;18.326;2023-05-06T10:30:42;7.80;99.90
21267;DHT22;10791;53.108;18.326;2023-05-06T10:41:03;7.90;99.90
21267;DHT22;10791;53.108;18.326;2023-05-06T10:46:14;7.90;99.90
21267;DHT22;10791;53.108;18.326;2023-05-06T10:56:21;7.90;99.90
21267;DHT22;10791;53.108;18.326;2023-05-06T11:01:26;7.90;99.90
21267;DHT22;10791;53.108;18.326;2023-05-06T11:06:38;8.00;99.90
21267;DHT22;10791;53.108;18.326;2023-05-06T11:12:00;8.00;99.90
21267;DHT22;10791;53.108;18.326;2023-05-06T11:17:07;8.10;99.90
21267;DHT22;10791;53.108;18.326;2023-05-06T11:22:38;8.10;99.90
21267;DHT22;10791;53.108;18.326;2023-05-06T11:27:42;8.10;99.90
21267;DHT22;10791;53.108;18.326;2023-05-06T11:32:45;8.20;99.90
21267;DHT22;10791;53.108;18.326;2023-05-06T11:37:50;8.20;99.90
21267;DHT22;10791;53.108;18.326;2023-05-06T11:42:54;8.20;99.90
21267;DHT22;10791;53.108;18.326;2023-05-06T11:47:58;8.20;99.90
21267;DHT22;10791;53.108;18.326;2023-05-06T11:53:01;8.20;99.90
21267;DHT22;10791;53.108;18.326;2023-05-06T11:58:05;8.20;99.90
21267;DHT22;10791;53.108;18.326;2023-05-06T12:03:13;8.20;99.90
21267;DHT22;10791;53.108;18.326;2023-05-06T12:13:29;8.30;99.90
21267;DHT22;10791;53.108;18.326;2023-05-06T12:18:33;8.30;99.90
21267;DHT22;10791;53.108;18.326;2023-05-06T12:23:36;8.20;99.90
21267;DHT22;10791;53.108;18.326;2023-05-06T12:29:11;8.30;99.90
21267;DHT22;10791;53.108;18.326;2023-05-06T12:34:15;8.20;99.90
21267;DHT22;10791;53.108;18.326;2023-05-06T12:39:20;8.20;99.90
21267;DHT22;10791;53.108;18.326;2023-05-06T12:44:37;8.20;99.90
21267;DHT22;10791;53.108;18.326;2023-05-06T12:54:55;8.30;99.90
21267;DHT22;10791;53.108;18.326;2023-05-06T13:00:02;8.30;99.90
21267;DHT22;10791;53.108;18.326;2023-05-06T13:05:05;8.30;99.90
21267;DHT22;10791;53.108;18.326;2023-05-06T13:10:09;8.30;99.90
21267;DHT22;10791;53.108;18.326;2023-05-06T13:15:14;8.40;99.90
21267;DHT22;10791;53.108;18.326;2023-05-06T13:20:17;8.40;99.90
21267;DHT22;10791;53.108;18.326;2023-05-06T13:25:20;8.40;99.90
21267;DHT22;10791;53.108;18.326;2023-05-06T13:30:24;8.40;99.90
21267;DHT22;10791;53.108;18.326;2023-05-06T13:35:27;8.30;99.90
21267;DHT22;10791;53.108;18.326;2023-05-06T13:40:32;8.30;99.90
21267;DHT22;10791;53.108;18.326;2023-05-06T13:45:35;8.30;99.90
21267;DHT22;10791;53.108;18.326;2023-05-06T13:50:41;8.40;99.90
21267;DHT22;10791;53.108;18.326;2023-05-06T13:55:47;8.30;99.90
21267;DHT22;10791;53.108;18.326;2023-05-06T14:00:52;8.30;99.90
21267;DHT22;10791;53.108;18.326;2023-05-06T14:05:55;8.30;99.90
21267;DHT22;10791;53.108;18.326;2023-05-06T14:10:59;8.40;99.90
21267;DHT22;10791;53.108;18.326;2023-05-06T14:16:02;8.40;99.90
21267;DHT22;10791;53.108;18.326;2023-05-06T14:21:06;8.40;99.90
21267;DHT22;10791;53.108;18.326;2023-05-06T14:26:09;8.30;99.90
21267;DHT22;10791;53.108;18.326;2023-05-06T14:31:13;8.30;99.90
21267;DHT22;10791;53.108;18.326;2023-05-06T14:36:18;8.20;99.90
21267;DHT22;10791;53.108;18.326;2023-05-06T14:41:22;8.20;99.90
21267;DHT22;10791;53.108;18.326;2023-05-06T14:46:25;8.30;99.90
21267;DHT22;10791;53.108;18.326;2023-05-06T14:51:31;8.30;99.90
21267;DHT22;10791;53.108;18.326;2023-05-06T14:56:36;8.30;99.90
21267;DHT22;10791;53.108;18.326;2023-05-06T15:01:39;8.30;99.90
21267;DHT22;10791;53.108;18.326;2023-05-06T15:06:43;8.30;99.90
21267;DHT22;10791;53.108;18.326;2023-05-06T15:11:46;8.20;99.90
21267;DHT22;10791;53.108;18.326;2023-05-06T15:16:54;8.20;99.90
21267;DHT22;10791;53.108;18.326;2023-05-06T15:21:58;8.20;99.90
21267;DHT22;10791;53.108;18.326;2023-05-06T15:27:02;8.30;99.90
21267;DHT22;10791;53.108;18.326;2023-05-06T15:32:05;8.10;99.90
21267;DHT22;10791;53.108;18.326;2023-05-06T15:37:09;8.10;99.90
21267;DHT22;10791;53.108;18.326;2023-05-06T15:42:14;8.10;99.90
21267;DHT22;10791;53.108;18.326;2023-05-06T15:47:19;8.20;99.90
21267;DHT22;10791;53.108;18.326;2023-05-06T15:52:22;8.20;99.90
21267;DHT22;10791;53.108;18.326;2023-05-06T15:57:29;8.20;99.90
21267;DHT22;10791;53.108;18.326;2023-05-06T16:02:33;8.20;99.90
21267;DHT22;10791;53.108;18.326;2023-05-06T16:07:37;8.20;99.90
21267;DHT22;10791;53.108;18.326;2023-05-06T16:12:40;8.10;99.90
21267;DHT22;10791;53.108;18.326;2023-05-06T16:17:44;8.10;99.90
21267;DHT22;10791;53.108;18.326;2023-05-06T16:22:55;8.10;99.90
21267;DHT22;10791;53.108;18.326;2023-05-06T16:28:04;8.10;99.90
21267;DHT22;10791;53.108;18.326;2023-05-06T16:33:15;8.10;99.90
21267;DHT22;10791;53.108;18.326;2023-05-06T16:38:28;8.10;99.90
21267;DHT22;10791;53.108;18.326;2023-05-06T16:43:31;8.20;99.90
21267;DHT22;10791;53.108;18.326;2023-05-06T16:48:35;8.20;99.90
21267;DHT22;10791;53.108;18.326;2023-05-06T16:53:39;8.30;99.90
21267;DHT22;10791;53.108;18.326;2023-05-06T16:58:42;8.30;99.90
21267;DHT22;10791;53.108;18.326;2023-05-06T17:03:45;8.30;99.90
21267;DHT22;10791;53.108;18.326;2023-05-06T17:08:48;8.30;99.90
21267;DHT22;10791;53.108;18.326;2023-05-06T17:13:52;8.30;99.90
21267;DHT22;10791;53.108;18.326;2023-05-06T17:18:56;8.30;99.90
21267;DHT22;10791;53.108;18.326;2023-05-06T17:23:59;8.20;99.90
21267;DHT22;10791;53.108;18.326;2023-05-06T17:29:03;8.20;99.90
21267;DHT22;10791;53.108;18.326;2023-05-06T17:34:07;8.20;99.90
21267;DHT22;10791;53.108;18.326;2023-05-06T17:39:10;8.10;99.90
21267;DHT22;10791;53.108;18.326;2023-05-06T17:44:13;8.10;99.90
21267;DHT22;10791;53.108;18.326;2023-05-06T17:49:19;8.00;99.90
21267;DHT22;10791;53.108;18.326;2023-05-06T17:54:22;8.00;99.90
21267;DHT22;10791;53.108;18.326;2023-05-06T17:59:26;8.00;99.90
21267;DHT22;10791;53.108;18.326;2023-05-06T18:04:31;8.00;99.90
21267;DHT22;10791;53.108;18.326;2023-05-06T18:09:34;8.00;99.90
21267;DHT22;10791;53.108;18.326;2023-05-06T18:14:38;8.10;99.90
21267;DHT22;10791;53.108;18.326;2023-05-06T18:19:41;8.30;99.90
21267;DHT22;10791;53.108;18.326;2023-05-06T18:24:46;8.10;99.90
21267;DHT22;10791;53.108;18.326;2023-05-06T18:29:50;8.00;99.90
21267;DHT22;10791;53.108;18.326;2023-05-06T18:34:53;7.90;99.90
21267;DHT22;10791;53.108;18.326;2023-05-06T18:39:57;8.00;99.90
21267;DHT22;10791;53.108;18.326;2023-05-06T18:45:01;8.00;99.90
21267;DHT22;10791;53.108;18.326;2023-05-06T18:50:07;8.20;99.90
21267;DHT22;10791;53.108;18.326;2023-05-06T18:55:11;8.20;99.90
21267;DHT22;10791;53.108;18.326;2023-05-06T19:00:14;8.30;99.90
21267;DHT22;10791;53.108;18.326;2023-05-06T19:05:18;8.30;99.90
21267;DHT22;10791;53.108;18.326;2023-05-06T19:10:24;8.30;99.90
21267;DHT22;10791;53.108;18.326;2023-05-06T19:15:28;8.40;99.90
21267;DHT22;10791;53.108;18.326;2023-05-06T19:20:31;8.40;99.90
21267;DHT22;10791;53.108;18.326;2023-05-06T19:25:36;8.40;99.90
21267;DHT22;10791;53.108;18.326;2023-05-06T19:30:40;8.30;99.90
21267;DHT22;10791;53.108;18.326;2023-05-06T19:35:44;8.20;99.90
21267;DHT22;10791;53.108;18.326;2023-05-06T19:40:48;8.20;99.90
21267;DHT22;10791;53.108;18.326;2023-05-06T19:45:51;8.20;99.90
21267;DHT22;10791;53.108;18.326;2023-05-06T19:50:55;8.10;99.90
21267;DHT22;10791;53.108;18.326;2023-05-06T19:56:10;8.10;99.90
21267;DHT22;10791;53.108;18.326;2023-05-06T20:01:14;8.10;99.90
21267;DHT22;10791;53.108;18.326;2023-05-06T20:06:19;8.10;99.90
21267;DHT22;10791;53.108;18.326;2023-05-06T20:11:22;8.00;99.90
21267;DHT22;10791;53.108;18.326;2023-05-06T20:16:26;7.90;99.90
21267;DHT22;10791;53.108;18.326;2023-05-06T20:21:30;7.90;99.90
21267;DHT22;10791;53.108;18.326;2023-05-06T20:26:33;7.80;99.90
21267;DHT22;10791;53.108;18.326;2023-05-06T20:31:37;7.70;99.90
21267;DHT22;10791;53.108;18.326;2023-05-06T20:36:41;7.60;99.90
21267;DHT22;10791;53.108;18.326;2023-05-06T20:41:45;7.60;99.90
21267;DHT22;10791;53.108;18.326;2023-05-06T20:46:48;7.50;99.90
21267;DHT22;10791;53.108;18.326;2023-05-06T20:51:51;7.50;99.90
21267;DHT22;10791;53.108;18.326;2023-05-06T20:56:55;7.50;99.90
21267;DHT22;10791;53.108;18.326;2023-05-06T21:02:00;7.40;99.90
21267;DHT22;10791;53.108;18.326;2023-05-06T21:07:07;7.40;99.90
21267;DHT22;10791;53.108;18.326;2023-05-06T21:12:21;7.30;99.90
21267;DHT22;10791;53.108;18.326;2023-05-06T21:17:25;7.30;99.90
21267;DHT22;10791;53.108;18.326;2023-05-06T21:22:28;7.30;99.90
21267;DHT22;10791;53.108;18.326;2023-05-06T21:27:32;7.20;99.90
21267;DHT22;10791;53.108;18.326;2023-05-06T21:32:35;7.20;99.90
21267;DHT22;10791;53.108;18.326;2023-05-06T21:37:38;7.20;99.90
21267;DHT22;10791;53.108;18.326;2023-05-06T21:42:42;7.20;99.90
21267;DHT22;10791;53.108;18.326;2023-05-06T21:47:45;7.10;99.90
21267;DHT22;10791;53.108;18.326;2023-05-06T21:52:48;7.10;99.90
21267;DHT22;10791;53.108;18.326;2023-05-06T21:57:51;7.10;99.90
21267;DHT22;10791;53.108;18.326;2023-05-06T22:02:54;7.10;99.90
21267;DHT22;10791;53.108;18.326;2023-05-06T22:07:58;7.10;99.90
21267;DHT22;10791;53.108;18.326;2023-05-06T22:13:01;7.10;99.90
21267;DHT22;10791;53.108;18.326;2023-05-06T22:18:05;7.10;99.90
21267;DHT22;10791;53.108;18.326;2023-05-06T22:23:10;7.00;99.90
21267;DHT22;10791;53.108;18.326;2023-05-06T22:28:14;7.00;99.90
21267;DHT22;10791;53.108;18.326;2023-05-06T22:33:17;6.90;99.90
21267;DHT22;10791;53.108;18.326;2023-05-06T22:38:21;6.80;99.90
21267;DHT22;10791;53.108;18.326;2023-05-06T22:43:24;6.80;99.90
21267;DHT22;10791;53.108;18.326;2023-05-06T22:48:27;6.70;99.90
21267;DHT22;10791;53.108;18.326;2023-05-06T22:53:31;6.60;99.90
21267;DHT22;10791;53.108;18.326;2023-05-06T22:58:34;6.50;99.90
21267;DHT22;10791;53.108;18.326;2023-05-06T23:03:38;6.40;99.90
21267;DHT22;10791;53.108;18.326;2023-05-06T23:08:41;6.30;99.90
21267;DHT22;10791;53.108;18.326;2023-05-06T23:13:44;6.20;99.90
21267;DHT22;10791;53.108;18.326;2023-05-06T23:18:48;6.00;99.90
21267;DHT22;10791;53.108;18.326;2023-05-06T23:23:51;6.00;99.90
21267;DHT22;10791;53.108;18.326;2023-05-06T23:28:55;5.80;99.90
21267;DHT22;10791;53.108;18.326;2023-05-06T23:33:58;5.70;99.90
21267;DHT22;10791;53.108;18.326;2023-05-06T23:39:01;5.60;99.90
21267;DHT22;10791;53.108;18.326;2023-05-06T23:44:05;5.40;99.90
21267;DHT22;10791;53.108;18.326;2023-05-06T23:49:08;5.30;99.90
21267;DHT22;10791;53.108;18.326;2023-05-06T23:54:12;5.20;99.90
21267;DHT22;10791;53.108;18.326;2023-05-06T23:59:15;5.20;99.90
